Time;durP1;ratioP1;P1;durP2;ratioP2;P2;SDS_P1;SDS_P2;PMS_P1;PMS_P2;Temp;Humidity;BMP_temperature;BMP_pressure;BME280_temperature;BME280_humidity;BME280_pressure;Samples;Min_cycle;Max_cycle;Signal;HPM_P1;HPM_P2
2023/03/23 00:02:28;;;;;;;2.53;0.93;;;14.40;79.40;;;;;;4945912;29;20056;-72
2023/03/23 00:04:55;;;;;;;2.95;0.85;;;14.50;77.70;;;;;;4946338;29;20028;-72
2023/03/23 00:07:22;;;;;;;5.05;1.25;;;14.50;77.20;;;;;;4945547;29;20042;-72
2023/03/23 00:09:53;;;;;;;1.73;0.73;;;14.60;77.20;;;;;;4946364;29;20030;-72
2023/03/23 00:12:28;;;;;;;3.47;0.98;;;14.60;76.80;;;;;;4932557;29;20074;-73
2023/03/23 00:14:58;;;;;;;1.90;0.88;;;14.70;76.50;;;;;;4945680;29;20039;-73
2023/03/23 00:17:24;;;;;;;2.65;0.82;;;14.70;76.50;;;;;;4945273;29;20044;-73
2023/03/23 00:19:50;;;;;;;2.83;0.90;;;14.70;77.20;;;;;;4946129;29;20043;-73
2023/03/23 00:22:19;;;;;;;2.20;0.75;;;14.70;76.70;;;;;;4945335;29;20040;-72
2023/03/23 00:24:44;;;;;;;;;;;14.70;76.70;;;;;;4945181;29;20042;-72
2023/03/23 00:27:12;;;;;;;3.00;0.80;;;14.70;76.90;;;;;;4945832;29;19907;-72
2023/03/23 00:29:39;;;;;;;1.70;0.85;;;14.70;77.10;;;;;;4945906;29;20087;-72
2023/03/23 00:32:04;;;;;;;2.50;1.05;;;14.70;77.20;;;;;;4945946;29;20031;-72
2023/03/23 00:34:32;;;;;;;1.90;0.90;;;14.60;77.50;;;;;;4945341;29;20031;-73
2023/03/23 00:36:58;;;;;;;4.50;0.90;;;14.60;77.80;;;;;;4945727;29;20112;-74
2023/03/23 00:39:28;;;;;;;1.98;0.82;;;14.60;77.70;;;;;;4944792;29;20043;-74
2023/03/23 00:42:00;;;;;;;1.73;0.75;;;14.60;77.50;;;;;;4945541;29;20094;-74
2023/03/23 00:44:28;;;;;;;2.78;1.02;;;14.50;77.70;;;;;;4943812;29;20039;-74
2023/03/23 00:46:56;;;;;;;2.85;1.13;;;14.50;78.00;;;;;;4945546;29;20036;-73
2023/03/23 00:49:26;;;;;;;2.45;1.15;;;14.40;78.30;;;;;;4945214;29;20043;-73
2023/03/23 00:51:56;;;;;;;2.72;1.10;;;14.30;79.40;;;;;;4945456;29;20105;-74
2023/03/23 00:54:23;;;;;;;3.25;1.20;;;14.20;79.20;;;;;;4943842;29;20038;-74
2023/03/23 00:56:50;;;;;;;3.55;1.20;;;14.10;79.50;;;;;;4944574;29;20190;-73
2023/03/23 00:59:16;;;;;;;2.95;1.25;;;14.00;79.50;;;;;;4943491;29;20348;-73
2023/03/23 06:03:40;;;;;;;2.55;1.15;;;15.10;78.60;;;;;;4997127;23;20058;-72
2023/03/23 06:06:29;;;;;;;2.15;1.00;;;15.20;78.40;;;;;;4973598;28;20031;-73
2023/03/23 06:09:06;;;;;;;3.55;0.77;;;15.20;78.10;;;;;;4969797;28;20049;-75
2023/03/23 06:12:00;;;;;;;3.20;1.00;;;15.30;78.10;;;;;;4973176;28;20033;-74
2023/03/23 06:14:37;;;;;;;1.90;0.90;;;15.30;78.30;;;;;;4973052;28;20109;-73
2023/03/23 06:17:03;;;;;;;2.40;0.98;;;15.30;78.60;;;;;;4984957;28;20026;-73
2023/03/23 06:19:29;;;;;;;3.08;1.00;;;15.40;77.80;;;;;;4989069;28;20106;-74
2023/03/23 06:22:03;;;;;;;2.10;0.80;;;15.40;78.00;;;;;;4975538;28;20049;-70
2023/03/23 06:24:49;;;;;;;2.58;0.88;;;15.40;78.00;;;;;;4999070;28;20110;-73
2023/03/23 06:27:19;;;;;;;4.80;1.15;;;15.30;78.00;;;;;;4985049;28;20038;-72
2023/03/23 06:29:46;;;;;;;2.92;1.35;;;15.30;78.00;;;;;;4982442;28;20027;-72
2023/03/23 06:32:13;;;;;;;2.25;1.13;;;15.30;78.10;;;;;;4984650;28;20033;-74
2023/03/23 06:34:43;;;;;;;3.72;1.10;;;15.30;78.10;;;;;;4977846;28;20022;-73
2023/03/23 06:37:29;;;;;;;1.80;0.80;;;15.30;78.30;;;;;;4996851;28;20103;-71
2023/03/23 06:40:09;;;;;;;3.22;1.17;;;15.30;78.30;;;;;;4978796;28;20031;-73
2023/03/23 06:42:38;;;;;;;2.95;1.25;;;15.30;78.50;;;;;;4987938;28;20030;-73
2023/03/23 06:45:22;;;;;;;2.15;0.93;;;15.20;78.50;;;;;;5005924;28;20033;-72
2023/03/23 06:47:53;;;;;;;3.40;0.80;;;15.20;78.70;;;;;;4977397;28;20030;-73
2023/03/23 06:50:20;;;;;;;2.35;1.00;;;15.30;78.60;;;;;;4982140;28;20019;-73
2023/03/23 06:52:47;;;;;;;3.78;1.23;;;15.30;78.70;;;;;;4996550;28;20334;-73
2023/03/23 06:55:14;;;;;;;2.45;0.93;;;15.40;78.60;;;;;;4997297;28;20057;-73
2023/03/23 06:57:41;;;;;;;3.25;0.98;;;15.50;78.30;;;;;;4982563;28;20019;-73
2023/03/23 07:00:13;;;;;;;2.67;0.80;;;15.70;78.20;;;;;;4975483;28;20219;-73
2023/03/23 07:02:41;;;;;;;3.13;1.10;;;15.90;77.50;;;;;;4983804;28;20072;-72
2023/03/23 07:05:09;;;;;;;2.60;1.10;;;16.00;77.30;;;;;;4984856;28;20035;-73
2023/03/23 07:07:39;;;;;;;;;;;16.10;76.80;;;;;;4958349;28;20031;-74
2023/03/23 07:10:28;;;;;;;3.75;1.00;;;16.10;77.00;;;;;;4975901;28;19946;-73
2023/03/23 07:12:54;;;;;;;3.13;1.00;;;16.10;77.00;;;;;;4957746;28;20027;-73
2023/03/23 07:15:21;;;;;;;3.55;1.00;;;16.10;77.10;;;;;;4978576;28;20074;-73
2023/03/23 07:17:49;;;;;;;2.97;0.88;;;16.10;77.00;;;;;;4968066;28;20042;-72
2023/03/23 07:20:29;;;;;;;2.88;1.00;;;16.10;77.20;;;;;;4958516;28;20098;-72
2023/03/23 07:22:55;;;;;;;2.38;0.90;;;16.00;77.40;;;;;;4967875;28;20038;-74
2023/03/23 07:25:37;;;;;;;3.00;1.08;;;16.00;77.50;;;;;;4968120;28;20029;-73
2023/03/23 07:28:03;;;;;;;4.13;1.20;;;15.90;77.70;;;;;;4982245;28;20023;-73
2023/03/23 07:30:30;;;;;;;4.57;1.20;;;15.90;77.70;;;;;;4985537;28;20046;-73
2023/03/23 07:32:57;;;;;;;2.85;1.17;;;15.90;77.80;;;;;;4967765;28;20469;-72
2023/03/23 07:35:25;;;;;;;2.70;1.17;;;15.90;77.90;;;;;;4984097;28;20316;-73
2023/03/23 07:37:56;;;;;;;3.47;1.17;;;15.90;78.00;;;;;;4967390;28;20304;-73
2023/03/23 07:40:22;;;;;;;2.70;1.15;;;15.90;77.90;;;;;;4975229;28;20034;-74
2023/03/23 07:42:56;;;;;;;4.40;1.10;;;16.00;77.90;;;;;;4980538;28;20212;-72
2023/03/23 07:45:46;;;;;;;3.08;1.30;;;16.00;77.70;;;;;;4955351;29;20039;-73
2023/03/23 07:48:13;;;;;;;3.45;1.25;;;16.20;77.60;;;;;;4963581;28;20086;-73
2023/03/23 07:50:40;;;;;;;3.22;1.30;;;16.30;77.20;;;;;;4975272;28;20319;-74
2023/03/23 07:53:08;;;;;;;4.63;1.00;;;16.40;77.00;;;;;;4967604;28;20041;-72
2023/03/23 07:55:35;;;;;;;3.33;1.50;;;16.60;76.40;;;;;;4967614;28;20097;-72
2023/03/23 07:58:21;;;;;;;2.53;1.00;;;16.80;76.30;;;;;;4956689;28;20110;-72
2023/03/23 08:00:53;;;;;;;3.03;1.27;;;17.10;75.70;;;;;;4954744;28;20125;-72
2023/03/23 08:03:20;;;;;;;2.83;1.27;;;17.20;75.50;;;;;;4983401;28;20229;-73
2023/03/23 08:06:06;;;;;;;3.45;1.27;;;17.30;75.20;;;;;;4984470;28;20083;-73
2023/03/23 08:08:59;;;;;;;2.70;1.02;;;17.40;75.30;;;;;;4959127;28;20046;-71
2023/03/23 08:11:44;;;;;;;2.75;0.98;;;17.20;76.00;;;;;;4984212;28;20350;-72
2023/03/23 08:14:35;;;;;;;2.42;1.00;;;17.20;76.50;;;;;;4974340;28;20358;-73
2023/03/23 08:17:17;;;;;;;2.42;1.08;;;17.10;76.90;;;;;;4982940;28;20046;-72
2023/03/23 08:19:55;;;;;;;;;;;17.20;77.00;;;;;;4957122;28;20034;-75
2023/03/23 08:22:56;;;;;;;2.88;1.10;;;17.10;77.20;;;;;;4982813;28;19973;-73
2023/03/23 08:25:36;;;;;;;3.58;1.20;;;17.10;77.50;;;;;;4967410;28;20034;-72
2023/03/23 08:28:13;;;;;;;3.20;1.08;;;17.20;77.60;;;;;;4967289;28;20296;-73
2023/03/23 08:31:00;;;;;;;;;;;17.30;77.90;;;;;;4988177;28;20042;-72
2023/03/23 08:33:34;;;;;;;2.15;0.80;;;17.30;78.30;;;;;;4975167;28;19905;-74
2023/03/23 08:36:15;;;;;;;3.95;1.25;;;17.30;78.70;;;;;;4983232;28;20054;-75
2023/03/23 08:39:14;;;;;;;4.00;1.15;;;17.40;78.60;;;;;;4946449;28;20042;-71
2023/03/23 08:42:02;;;;;;;;;;;17.30;79.00;;;;;;4983303;28;20425;-73
2023/03/23 08:44:46;;;;;;;2.40;1.17;;;17.20;79.70;;;;;;4983773;28;19965;-73
2023/03/23 08:47:37;;;;;;;2.03;0.90;;;17.10;79.80;;;;;;4981605;28;20078;-73
2023/03/23 08:50:26;;;;;;;2.03;0.90;;;16.90;80.20;;;;;;4983582;28;20095;-74
2023/03/23 08:53:02;;;;;;;2.40;0.93;;;16.90;80.80;;;;;;4982409;28;20049;-72
2023/03/23 08:55:47;;;;;;;2.65;1.02;;;16.90;80.80;;;;;;4983363;28;20038;-72
2023/03/23 08:58:13;;;;;;;3.60;1.13;;;16.90;81.30;;;;;;4982838;28;20049;-73
2023/03/23 09:01:04;;;;;;;2.42;1.13;;;16.90;81.50;;;;;;4984230;28;20314;-72
2023/03/23 09:03:42;;;;;;;2.25;0.90;;;16.80;81.90;;;;;;4983337;28;20058;-73
2023/03/23 09:06:27;;;;;;;2.45;1.10;;;16.80;81.80;;;;;;4966576;28;20293;-73
2023/03/23 09:08:55;;;;;;;3.15;1.30;;;16.90;82.10;;;;;;4983262;28;20042;-72
2023/03/23 09:11:22;;;;;;;2.35;0.90;;;17.00;81.80;;;;;;4983746;28;20046;-73
2023/03/23 09:13:48;;;;;;;2.60;1.08;;;17.10;81.50;;;;;;4985986;28;20193;-73
2023/03/23 09:16:14;;;;;;;3.92;1.20;;;17.20;80.90;;;;;;4983522;28;20268;-72
2023/03/23 09:18:40;;;;;;;2.22;1.00;;;17.30;81.00;;;;;;4975110;28;20035;-72
2023/03/23 09:21:06;;;;;;;2.60;1.13;;;17.40;80.80;;;;;;4981094;28;20073;-72
2023/03/23 09:23:32;;;;;;;2.35;1.10;;;17.50;80.30;;;;;;4983560;28;20106;-73
2023/03/23 09:26:00;;;;;;;2.28;1.08;;;17.50;80.30;;;;;;4982657;28;20042;-73
2023/03/23 09:28:26;;;;;;;3.67;1.30;;;17.50;80.00;;;;;;4983323;28;20231;-73
2023/03/23 09:30:57;;;;;;;2.20;1.10;;;17.60;80.00;;;;;;4982416;28;20065;-72
2023/03/23 09:33:23;;;;;;;2.55;0.98;;;17.60;79.70;;;;;;4983288;28;20316;-73
2023/03/23 09:35:49;;;;;;;2.25;0.95;;;17.80;79.70;;;;;;4982794;28;20117;-73
2023/03/23 09:38:15;;;;;;;2.42;1.02;;;17.80;79.70;;;;;;4982989;28;20046;-73
2023/03/23 09:40:50;;;;;;;3.50;1.20;;;17.80;79.40;;;;;;4983112;28;20101;-73
2023/03/23 09:43:45;;;;;;;4.32;1.27;;;17.70;79.00;;;;;;4983093;28;20050;-74
2023/03/23 09:46:33;;;;;;;2.50;1.10;;;17.60;79.20;;;;;;4983209;28;20039;-73
2023/03/23 09:49:04;;;;;;;2.13;0.88;;;17.50;79.40;;;;;;4982458;28;20046;-73
2023/03/23 09:51:41;;;;;;;4.88;1.00;;;17.40;80.00;;;;;;4983270;28;20061;-74
2023/03/23 09:54:10;;;;;;;3.05;0.90;;;17.40;79.90;;;;;;4982767;28;20054;-71
2023/03/23 09:56:36;;;;;;;2.25;0.80;;;17.30;80.30;;;;;;4982666;28;20055;-73
2023/03/23 09:59:18;;;;;;;4.45;1.00;;;17.20;80.50;;;;;;4981062;28;20343;-73
2023/03/23 10:01:52;;;;;;;2.25;0.80;;;17.50;80.20;;;;;;4982829;28;20328;-72
2023/03/23 10:04:24;;;;;;;2.88;0.80;;;17.70;79.60;;;;;;4982960;28;20031;-73
2023/03/23 10:06:50;;;;;;;3.15;0.80;;;17.80;79.30;;;;;;4982368;28;20034;-73
2023/03/23 10:09:20;;;;;;;4.43;1.10;;;18.00;78.70;;;;;;4982572;28;20390;-73
2023/03/23 10:11:58;;;;;;;1.90;0.90;;;18.00;78.90;;;;;;4982801;28;20054;-74
2023/03/23 10:14:49;;;;;;;3.38;1.00;;;17.90;79.00;;;;;;4976151;28;20045;-74
2023/03/23 10:17:32;;;;;;;2.97;1.00;;;17.80;79.90;;;;;;4986530;28;20050;-74
2023/03/23 10:20:24;;;;;;;3.00;0.90;;;17.70;79.70;;;;;;4975798;28;20046;-77
2023/03/23 10:22:58;;;;;;;2.22;0.80;;;17.90;79.80;;;;;;4986595;28;20034;-73
2023/03/23 10:25:40;;;;;;;2.25;1.20;;;18.10;79.00;;;;;;4986517;28;20035;-72
2023/03/23 10:28:15;;;;;;;2.05;0.90;;;17.90;79.20;;;;;;4986440;28;20038;-70
2023/03/23 10:31:00;;;;;;;2.67;0.98;;;17.70;79.70;;;;;;4986707;28;20034;-71
2023/03/23 10:33:42;;;;;;;4.03;1.05;;;17.80;79.80;;;;;;4986193;28;20038;-73
2023/03/23 10:36:09;;;;;;;2.63;0.90;;;17.90;80.00;;;;;;4980722;28;20047;-73
2023/03/23 10:38:40;;;;;;;3.40;0.98;;;18.00;79.50;;;;;;4978688;28;20031;-73
2023/03/23 10:41:17;;;;;;;1.90;0.70;;;18.10;79.50;;;;;;4985496;28;20039;-72
2023/03/23 10:43:44;;;;;;;3.55;0.93;;;18.30;79.70;;;;;;4986291;28;20042;-71
2023/03/23 10:46:31;;;;;;;2.05;0.85;;;18.20;79.40;;;;;;4968395;28;20038;-72
2023/03/23 10:48:59;;;;;;;3.28;0.88;;;18.30;79.10;;;;;;4985449;28;20118;-71
2023/03/23 10:51:37;;;;;;;3.47;0.77;;;18.20;79.40;;;;;;4986079;28;20022;-71
2023/03/23 10:54:04;;;;;;;2.30;0.80;;;18.00;80.10;;;;;;4985231;28;20035;-70
2023/03/23 10:56:42;;;;;;;3.03;1.10;;;18.00;80.00;;;;;;4985843;28;20066;-72
2023/03/23 10:59:30;;;;;;;4.77;1.20;;;18.10;80.10;;;;;;4985664;28;20043;-73
2023/03/23 11:02:02;;;;;;;3.70;1.10;;;18.30;79.30;;;;;;4984967;28;20500;-71
2023/03/23 11:04:30;;;;;;;3.15;1.00;;;18.40;79.10;;;;;;4985661;28;20064;-71
2023/03/23 11:07:01;;;;;;;3.20;1.15;;;18.60;79.00;;;;;;4985493;28;20054;-71
2023/03/23 11:09:39;;;;;;;1.77;0.82;;;18.60;78.80;;;;;;4985867;28;20331;-72
2023/03/23 11:12:16;;;;;;;2.05;0.90;;;18.50;79.10;;;;;;4985604;28;20069;-72
2023/03/23 11:14:42;;;;;;;1.85;0.90;;;18.60;79.20;;;;;;4975595;28;20046;-71
2023/03/23 11:17:23;;;;;;;4.00;1.13;;;18.70;78.80;;;;;;4984971;28;20031;-71
2023/03/23 11:19:48;;;;;;;2.50;1.10;;;18.70;78.60;;;;;;4975031;28;20051;-70
2023/03/23 11:22:31;;;;;;;3.60;1.20;;;18.50;78.60;;;;;;4984839;28;20035;-72
2023/03/23 11:25:01;;;;;;;2.45;0.80;;;18.30;79.30;;;;;;4984439;28;20058;-71
2023/03/23 11:27:28;;;;;;;3.20;1.15;;;18.10;79.80;;;;;;4985319;28;20094;-75
2023/03/23 11:30:07;;;;;;;1.90;0.90;;;18.00;80.90;;;;;;4985400;28;20073;-73
2023/03/23 11:32:33;;;;;;;2.70;0.82;;;17.90;80.60;;;;;;4985432;28;20029;-76
2023/03/23 11:35:05;;;;;;;4.63;1.00;;;18.00;80.80;;;;;;4985094;28;20039;-71
2023/03/23 11:37:36;;;;;;;2.85;1.05;;;18.10;80.70;;;;;;4985653;28;20060;-73
2023/03/23 11:40:06;;;;;;;3.42;1.00;;;18.40;80.70;;;;;;4984967;28;20038;-72
2023/03/23 11:42:32;;;;;;;2.45;1.10;;;18.50;79.50;;;;;;4985126;28;20039;-73
2023/03/23 11:45:22;;;;;;;3.28;1.38;;;18.70;78.70;;;;;;4984792;28;20109;-73
2023/03/23 11:47:53;;;;;;;1.75;0.70;;;18.70;78.70;;;;;;4985094;28;20039;-73
2023/03/23 11:50:33;;;;;;;4.65;1.08;;;18.80;79.00;;;;;;4985021;28;20039;-73
2023/03/23 11:53:03;;;;;;;2.05;0.88;;;18.90;78.50;;;;;;4984458;28;20060;-74
2023/03/23 11:55:38;;;;;;;2.22;1.00;;;19.10;78.40;;;;;;4984714;28;20037;-73
2023/03/23 11:58:15;;;;;;;2.35;0.98;;;18.90;78.40;;;;;;4982969;28;20097;-73
2023/03/23 12:01:01;;;;;;;3.10;1.10;;;18.90;79.30;;;;;;4984673;28;20038;-72
2023/03/23 12:03:57;;;;;;;3.08;1.30;;;19.10;78.40;;;;;;4983420;28;20316;-73
2023/03/23 12:06:43;;;;;;;2.70;1.30;;;19.30;77.00;;;;;;4984605;28;20035;-73
2023/03/23 12:09:36;;;;;;;2.78;1.15;;;19.50;76.80;;;;;;4973176;28;20062;-71
2023/03/23 12:12:18;;;;;;;2.83;0.98;;;19.50;76.50;;;;;;4937622;28;20039;-72
2023/03/23 12:14:47;;;;;;;2.38;1.00;;;19.50;74.90;;;;;;4981978;28;20090;-72
2023/03/23 12:17:31;;;;;;;;;;;19.50;75.40;;;;;;4972826;28;20047;-73
2023/03/23 12:20:24;;;;;;;2.78;0.95;;;19.40;75.20;;;;;;4975203;28;19996;-72
2023/03/23 12:23:49;;;;;;;3.22;1.20;;;19.20;74.70;;;;;;4984431;28;20278;-72
2023/03/23 12:26:37;;;;;;;2.45;1.00;;;19.20;74.60;;;;;;4886543;29;20051;-72
2023/03/23 12:29:18;;;;;;;1.60;0.90;;;19.20;74.70;;;;;;4886999;29;20041;-73
2023/03/23 12:32:05;;;;;;;2.88;1.00;;;19.20;74.40;;;;;;4887110;29;20240;-73
2023/03/23 12:34:44;;;;;;;3.67;1.42;;;19.30;73.60;;;;;;4887273;29;20037;-74
2023/03/23 12:37:28;;;;;;;3.33;0.90;;;19.30;74.00;;;;;;4885812;29;20041;-74
2023/03/23 12:40:29;;;;;;;3.95;1.25;;;19.40;74.20;;;;;;4887200;29;20192;-73
2023/03/23 12:43:19;;;;;;;2.55;1.13;;;19.60;73.80;;;;;;4881318;29;20089;-74
2023/03/23 12:46:16;;;;;;;2.65;0.88;;;19.60;73.40;;;;;;4887141;29;20045;-72
2023/03/23 12:48:53;;;;;;;3.83;1.00;;;19.90;72.80;;;;;;4887500;29;20104;-74
2023/03/23 12:51:37;;;;;;;2.78;1.00;;;20.00;73.00;;;;;;4886406;29;20072;-73
2023/03/23 12:54:12;;;;;;;2.10;0.80;;;20.70;71.60;;;;;;4886301;29;20041;-71
2023/03/23 12:57:18;;;;;;;1.83;0.75;;;20.80;71.20;;;;;;4924439;28;20047;-72
2023/03/23 13:00:14;;;;;;;2.50;1.00;;;20.40;71.90;;;;;;4961627;28;20118;-73
2023/03/23 13:02:55;;;;;;;2.40;1.00;;;20.10;72.50;;;;;;4971684;28;20070;-72
2023/03/23 13:05:24;;;;;;;3.35;1.13;;;19.80;74.50;;;;;;4983083;28;20054;-73
2023/03/23 13:08:01;;;;;;;3.38;1.17;;;19.60;74.00;;;;;;4983596;28;20328;-73
2023/03/23 13:10:42;;;;;;;2.03;1.00;;;19.50;74.30;;;;;;4983740;28;20031;-72
2023/03/23 13:13:15;;;;;;;3.53;1.05;;;19.30;74.80;;;;;;4970379;28;20035;-75
2023/03/23 13:16:05;;;;;;;2.63;1.00;;;19.40;75.30;;;;;;4983923;28;20035;-74
2023/03/23 13:18:49;;;;;;;3.42;1.33;;;19.60;75.00;;;;;;4983364;28;20047;-75
2023/03/23 13:21:27;;;;;;;2.50;0.80;;;19.60;74.80;;;;;;4983036;28;20035;-74
2023/03/23 13:24:03;;;;;;;3.22;1.23;;;19.70;74.40;;;;;;4983859;28;20065;-74
2023/03/23 13:26:41;;;;;;;3.33;1.27;;;19.70;74.40;;;;;;4983249;28;20043;-73
2023/03/23 13:29:13;;;;;;;3.22;1.10;;;19.80;74.40;;;;;;4982726;28;20173;-73
2023/03/23 13:31:41;;;;;;;3.50;0.98;;;19.90;74.50;;;;;;4983203;28;20030;-74
2023/03/23 13:34:12;;;;;;;10.30;5.18;;;19.80;74.20;;;;;;4987120;28;20042;-74
2023/03/23 13:36:40;;;;;;;4.75;1.73;;;20.00;73.80;;;;;;4969887;28;20030;-73
2023/03/23 13:39:18;;;;;;;2.33;1.20;;;20.20;73.70;;;;;;4982702;28;20046;-73
2023/03/23 13:41:58;;;;;;;2.85;0.95;;;20.10;73.80;;;;;;4983176;28;20035;-74
2023/03/23 13:44:26;;;;;;;2.85;0.70;;;20.10;73.70;;;;;;4983291;28;20035;-73
2023/03/23 13:46:56;;;;;;;;;;;20.00;73.90;;;;;;4983441;28;20042;-73
2023/03/23 13:49:22;;;;;;;2.40;1.05;;;20.00;74.00;;;;;;4982800;28;20092;-74
2023/03/23 13:51:59;;;;;;;2.58;1.17;;;20.10;74.30;;;;;;4982971;28;20298;-73
2023/03/23 13:54:38;;;;;;;2.35;1.00;;;20.10;73.10;;;;;;4983050;28;20216;-73
2023/03/23 13:57:19;;;;;;;2.28;0.98;;;19.90;73.00;;;;;;4981100;28;20221;-73
2023/03/23 13:59:55;;;;;;;2.58;1.10;;;19.60;73.70;;;;;;4983214;28;20046;-73
2023/03/23 14:02:41;;;;;;;3.88;1.30;;;19.60;73.40;;;;;;4982197;28;20290;-72
2023/03/23 14:05:17;;;;;;;3.30;1.15;;;19.40;73.60;;;;;;4982275;28;20313;-73
2023/03/23 14:07:53;;;;;;;3.08;1.27;;;19.30;74.40;;;;;;4982911;28;20309;-72
2023/03/23 14:10:19;;;;;;;2.00;0.80;;;19.10;74.30;;;;;;4982598;28;20047;-73
2023/03/23 14:12:46;;;;;;;4.50;1.52;;;19.10;74.90;;;;;;4982346;28;20110;-73
2023/03/23 14:15:14;;;;;;;3.83;1.20;;;19.10;75.00;;;;;;4971023;28;20034;-73
2023/03/23 14:17:44;;;;;;;2.35;1.10;;;19.10;75.50;;;;;;4982735;28;20073;-72
2023/03/23 14:20:29;;;;;;;4.30;1.13;;;19.20;74.80;;;;;;4977451;28;20070;-72
2023/03/23 14:22:56;;;;;;;2.35;1.30;;;19.20;74.70;;;;;;4982819;28;20217;-74
2023/03/23 14:25:25;;;;;;;2.05;1.02;;;19.30;74.30;;;;;;4982503;28;20045;-72
2023/03/23 14:27:52;;;;;;;3.08;1.33;;;19.30;74.20;;;;;;4982903;28;20041;-73
2023/03/23 14:30:21;;;;;;;2.95;1.05;;;19.30;74.00;;;;;;4982624;28;20049;-72
2023/03/23 14:32:48;;;;;;;;;;;19.30;73.00;;;;;;4983203;28;20062;-74
2023/03/23 14:35:29;;;;;;;3.65;1.20;;;19.30;73.20;;;;;;4982242;28;20108;-73
2023/03/23 14:37:56;;;;;;;2.80;1.25;;;19.30;72.90;;;;;;4982778;28;20309;-74
2023/03/23 14:40:22;;;;;;;2.83;1.00;;;19.30;73.10;;;;;;4982125;28;20041;-73
2023/03/23 14:42:51;;;;;;;4.00;1.20;;;19.30;73.00;;;;;;4982890;28;20097;-74
2023/03/23 14:45:20;;;;;;;3.03;1.08;;;19.30;73.00;;;;;;4981217;28;20216;-74
2023/03/23 14:47:54;;;;;;;3.47;1.08;;;19.30;73.40;;;;;;4982344;28;20037;-73
2023/03/23 14:50:29;;;;;;;2.53;1.08;;;19.40;72.30;;;;;;4982114;28;20058;-74
2023/03/23 14:53:21;;;;;;;2.55;1.20;;;19.30;72.60;;;;;;4982964;28;20043;-73
2023/03/23 14:55:48;;;;;;;3.15;1.30;;;19.40;72.60;;;;;;4960551;28;20042;-73
2023/03/23 14:58:20;;;;;;;3.88;1.38;;;19.30;72.40;;;;;;4980778;28;20085;-73
2023/03/23 15:01:10;;;;;;;2.33;1.00;;;19.30;72.20;;;;;;4985906;28;20057;-73
2023/03/23 15:03:44;;;;;;;2.33;1.23;;;19.20;72.50;;;;;;4957215;28;20051;-73
2023/03/23 15:06:17;;;;;;;2.45;1.17;;;19.10;72.80;;;;;;4966245;28;20332;-73
2023/03/23 15:08:44;;;;;;;5.25;1.20;;;19.00;72.70;;;;;;4966327;28;20106;-74
2023/03/23 15:11:17;;;;;;;2.13;1.05;;;19.00;72.70;;;;;;4966093;28;20199;-74
2023/03/23 15:13:49;;;;;;;2.22;1.10;;;19.10;72.90;;;;;;4966274;28;20027;-74
2023/03/23 15:16:19;;;;;;;4.50;1.33;;;19.20;72.20;;;;;;4968032;28;20325;-73
2023/03/23 15:19:15;;;;;;;3.63;1.50;;;19.20;72.00;;;;;;4969122;28;20055;-72
2023/03/23 15:21:48;;;;;;;3.25;1.20;;;19.20;71.80;;;;;;4948121;28;20094;-73
2023/03/23 15:24:20;;;;;;;2.78;1.23;;;19.20;71.80;;;;;;4966252;28;20334;-73
2023/03/23 15:26:45;;;;;;;2.28;1.25;;;19.20;71.40;;;;;;4966490;28;20035;-72
2023/03/23 15:29:23;;;;;;;3.45;1.17;;;19.10;71.10;;;;;;4965995;28;20046;-73
2023/03/23 15:31:58;;;;;;;3.17;1.27;;;19.00;71.10;;;;;;4965999;28;20035;-73
2023/03/23 15:34:39;;;;;;;2.15;1.05;;;18.90;71.40;;;;;;4965762;28;20078;-72
2023/03/23 15:37:16;;;;;;;2.70;1.38;;;18.80;71.50;;;;;;4965377;28;20046;-72
2023/03/23 15:39:44;;;;;;;4.47;1.23;;;18.80;71.60;;;;;;4975528;28;20326;-73
2023/03/23 15:42:31;;;;;;;4.43;1.45;;;18.70;71.60;;;;;;4946546;29;20035;-73
2023/03/23 15:45:12;;;;;;;3.50;1.40;;;18.70;71.90;;;;;;4946724;29;20040;-72
2023/03/23 15:47:43;;;;;;;3.40;1.20;;;18.60;71.80;;;;;;4946883;29;20062;-74
2023/03/23 15:50:16;;;;;;;2.65;1.40;;;18.60;71.90;;;;;;4946209;29;20261;-74
2023/03/23 15:52:43;;;;;;;4.13;1.20;;;18.50;72.30;;;;;;4947038;29;20039;-72
2023/03/23 15:55:35;;;;;;;2.67;1.25;;;18.50;72.20;;;;;;4946401;29;20039;-73
2023/03/23 15:58:09;;;;;;;3.35;1.35;;;18.40;72.30;;;;;;4956908;28;20043;-73
2023/03/23 16:00:35;;;;;;;2.70;1.20;;;18.40;72.70;;;;;;4965753;28;20047;-73
2023/03/23 16:03:05;;;;;;;3.75;1.42;;;18.40;73.10;;;;;;4979261;28;20049;-73
2023/03/23 16:05:32;;;;;;;2.90;1.10;;;18.40;73.00;;;;;;4985233;28;20030;-73
2023/03/23 16:07:58;;;;;;;3.95;1.42;;;18.30;73.20;;;;;;4983879;28;20038;-73
2023/03/23 16:10:26;;;;;;;2.85;1.30;;;18.30;73.30;;;;;;4983287;28;20050;-74
2023/03/23 16:12:52;;;;;;;3.97;1.23;;;18.20;73.20;;;;;;4983347;28;20047;-73
2023/03/23 16:15:18;;;;;;;2.90;1.30;;;18.20;73.40;;;;;;4972456;28;20329;-74
2023/03/23 16:17:45;;;;;;;3.60;1.50;;;18.20;73.50;;;;;;4984852;28;20035;-74
2023/03/23 16:20:19;;;;;;;4.47;1.13;;;18.10;73.70;;;;;;4984270;28;20062;-74
2023/03/23 16:22:45;;;;;;;3.10;1.27;;;18.00;73.60;;;;;;4984755;28;20046;-73
2023/03/23 16:25:12;;;;;;;2.88;1.23;;;18.00;73.90;;;;;;4983973;28;20126;-73
2023/03/23 16:27:39;;;;;;;2.75;1.40;;;17.90;74.10;;;;;;4984666;28;20097;-74
2023/03/23 16:30:15;;;;;;;3.40;1.20;;;17.90;74.30;;;;;;4984443;28;20038;-74
2023/03/23 16:32:41;;;;;;;3.50;1.20;;;17.80;74.30;;;;;;4984239;28;20054;-75
2023/03/23 16:35:10;;;;;;;3.55;1.10;;;17.80;74.50;;;;;;4983780;28;20035;-73
2023/03/23 16:37:35;;;;;;;;;;;17.70;74.50;;;;;;4985056;28;20062;-73
2023/03/23 16:40:02;;;;;;;3.03;1.05;;;17.70;74.70;;;;;;4984427;28;20184;-73
2023/03/23 16:42:28;;;;;;;2.50;1.25;;;17.60;75.20;;;;;;4983545;28;20105;-73
2023/03/23 16:44:54;;;;;;;2.40;1.15;;;17.60;75.10;;;;;;4983399;28;20035;-73
2023/03/23 16:47:24;;;;;;;2.65;1.33;;;17.60;75.20;;;;;;4984019;28;20041;-73
2023/03/23 16:49:51;;;;;;;2.70;1.13;;;17.60;75.20;;;;;;4984220;28;20066;-73
2023/03/23 16:52:17;;;;;;;2.47;1.20;;;17.50;75.20;;;;;;4983978;28;20022;-72
2023/03/23 16:54:43;;;;;;;2.85;1.25;;;17.50;75.70;;;;;;4983993;28;20342;-73
2023/03/23 16:57:09;;;;;;;3.17;1.35;;;17.40;76.30;;;;;;4983054;28;20058;-72
2023/03/23 16:59:35;;;;;;;3.15;1.42;;;17.40;76.30;;;;;;4983881;28;20313;-74
2023/03/23 17:02:02;;;;;;;3.40;1.20;;;17.40;76.60;;;;;;4983816;28;20085;-73
2023/03/23 17:04:32;;;;;;;3.28;1.08;;;17.30;76.60;;;;;;4983439;28;20097;-74
2023/03/23 17:06:59;;;;;;;3.65;1.30;;;17.30;76.60;;;;;;4984226;28;20138;-73
2023/03/23 17:09:25;;;;;;;4.07;1.23;;;17.30;76.80;;;;;;4983642;28;20762;-73
2023/03/23 17:11:52;;;;;;;3.55;1.20;;;17.20;76.80;;;;;;4972573;28;20062;-73
2023/03/23 17:14:18;;;;;;;3.92;1.25;;;17.30;76.90;;;;;;4976489;28;20042;-73
2023/03/23 17:16:44;;;;;;;2.90;1.35;;;17.20;77.10;;;;;;4983965;28;20255;-75
2023/03/23 17:19:10;;;;;;;2.85;1.10;;;17.20;77.30;;;;;;4965953;28;20093;-74
2023/03/23 17:21:36;;;;;;;3.60;1.50;;;17.20;77.50;;;;;;4983404;28;20216;-73
2023/03/23 17:24:02;;;;;;;4.07;1.67;;;17.10;77.80;;;;;;4991918;28;20225;-74
2023/03/23 17:26:28;;;;;;;3.88;1.30;;;17.10;78.00;;;;;;4964189;28;20197;-75
2023/03/23 17:28:54;;;;;;;2.55;0.98;;;17.00;78.40;;;;;;4964263;28;20113;-76
2023/03/23 17:31:22;;;;;;;2.85;1.17;;;17.00;78.50;;;;;;4963352;28;20035;-75
2023/03/23 17:33:48;;;;;;;;;;;16.90;78.80;;;;;;4968513;28;20029;-74
2023/03/23 17:36:14;;;;;;;2.03;0.88;;;16.90;78.90;;;;;;4983284;28;19945;-74
2023/03/23 17:38:39;;;;;;;3.75;1.20;;;16.90;78.90;;;;;;4981641;28;20041;-74
2023/03/23 17:41:06;;;;;;;2.90;1.42;;;16.90;79.00;;;;;;4973452;28;20095;-75
2023/03/23 17:43:34;;;;;;;2.97;1.10;;;16.90;79.00;;;;;;4982316;28;20030;-75
2023/03/23 17:46:00;;;;;;;3.00;1.27;;;16.90;79.20;;;;;;4983626;28;20035;-72
2023/03/23 17:48:25;;;;;;;3.28;1.30;;;16.90;79.30;;;;;;4970895;28;20367;-74
2023/03/23 17:50:56;;;;;;;3.38;1.23;;;16.80;79.60;;;;;;4983388;28;20034;-74
2023/03/23 17:53:24;;;;;;;2.47;1.38;;;16.80;79.80;;;;;;4982977;28;20038;-74
2023/03/23 17:55:53;;;;;;;3.03;1.20;;;16.80;79.90;;;;;;4957746;28;20195;-74
2023/03/23 17:58:19;;;;;;;2.83;1.30;;;16.70;80.10;;;;;;4968355;28;20061;-74
2023/03/23 18:00:45;;;;;;;2.80;1.25;;;16.70;80.30;;;;;;4983492;28;20229;-74
2023/03/23 18:03:11;;;;;;;4.57;1.30;;;16.70;80.40;;;;;;4982346;28;20236;-75
2023/03/23 18:05:39;;;;;;;3.92;1.15;;;16.70;80.70;;;;;;4983148;28;20037;-75
2023/03/23 18:08:06;;;;;;;2.70;1.17;;;16.60;80.90;;;;;;4983244;28;20089;-75
2023/03/23 18:10:35;;;;;;;2.67;1.05;;;16.60;81.00;;;;;;4978944;28;20043;-74
2023/03/23 18:13:02;;;;;;;4.25;1.33;;;16.60;81.00;;;;;;4976580;28;20035;-73
2023/03/23 18:15:29;;;;;;;4.93;1.40;;;16.60;81.00;;;;;;4983123;28;20035;-73
2023/03/23 18:17:56;;;;;;;3.00;1.38;;;16.60;81.10;;;;;;4965936;28;20327;-76
2023/03/23 18:20:21;;;;;;;2.50;1.30;;;16.50;81.10;;;;;;4981615;28;20046;-71
2023/03/23 18:22:48;;;;;;;2.85;1.50;;;16.60;81.20;;;;;;4982684;28;20069;-73
2023/03/23 18:25:14;;;;;;;3.55;1.30;;;16.60;81.20;;;;;;4982903;28;20053;-74
2023/03/23 18:27:40;;;;;;;3.85;1.55;;;16.60;81.10;;;;;;4982899;28;20046;-76